createdAt,value
2018-09-16T00:00:56.132Z,12.30
2018-09-16T00:03:23.604Z,12.20
2018-09-16T00:05:53.692Z,12.30
2018-09-16T00:08:21.244Z,12.30
2018-09-16T00:10:48.732Z,12.20
2018-09-16T00:13:16.556Z,12.20
2018-09-16T00:15:44.106Z,12.30
2018-09-16T00:18:11.620Z,12.40
2018-09-16T00:20:39.524Z,12.40
2018-09-16T00:23:07.024Z,12.30
2018-09-16T00:25:34.524Z,12.20
2018-09-16T00:28:02.166Z,12.20
2018-09-16T00:30:29.956Z,12.20
2018-09-16T00:32:57.463Z,12.20
2018-09-16T00:35:25.751Z,12.20
2018-09-16T00:37:53.215Z,12.20
2018-09-16T00:40:20.664Z,12.30
2018-09-16T00:42:48.166Z,12.20
2018-09-16T00:45:15.667Z,12.20
2018-09-16T00:47:43.104Z,12.10
2018-09-16T00:50:10.875Z,12.10
2018-09-16T00:52:38.342Z,12.10
2018-09-16T00:55:05.884Z,12.10
2018-09-16T00:57:33.400Z,12.00
2018-09-16T01:00:00.946Z,12.00
2018-09-16T01:02:28.409Z,12.10
2018-09-16T01:04:55.891Z,12.10
2018-09-16T01:07:23.331Z,12.10
2018-09-16T01:09:50.832Z,12.10
2018-09-16T01:12:18.323Z,12.10
2018-09-16T01:14:45.825Z,12.10
2018-09-16T01:17:13.328Z,12.00
2018-09-16T01:19:41.993Z,12.00
2018-09-16T01:22:09.516Z,12.00
2018-09-16T01:24:38.192Z,12.00
2018-09-16T01:27:06.340Z,12.00
2018-09-16T01:29:33.752Z,12.00
2018-09-16T01:32:01.281Z,12.00
2018-09-16T01:34:28.730Z,11.90
2018-09-16T01:36:56.164Z,11.80
2018-09-16T01:39:26.552Z,11.70
2018-09-16T01:41:54.044Z,11.70
2018-09-16T01:44:21.611Z,11.70
2018-09-16T01:46:49.103Z,11.70
2018-09-16T01:49:16.583Z,11.70
2018-09-16T01:51:44.020Z,11.70
2018-09-16T01:54:11.623Z,11.80
2018-09-16T01:56:39.072Z,11.80
2018-09-16T01:59:06.552Z,11.90
2018-09-16T02:01:34.137Z,11.90
2018-09-16T02:04:01.608Z,11.90
2018-09-16T02:06:29.120Z,11.80
2018-09-16T02:08:56.652Z,11.80
2018-09-16T02:11:24.127Z,11.70
2018-09-16T02:13:51.543Z,11.60
2018-09-16T02:16:19.111Z,11.60
2018-09-16T02:18:46.530Z,11.70
2018-09-16T02:21:14.070Z,11.60
2018-09-16T02:23:41.591Z,11.60
2018-09-16T02:26:09.008Z,11.50
2018-09-16T02:28:36.437Z,11.50
2018-09-16T02:31:04.467Z,11.40
2018-09-16T02:33:31.904Z,11.40
2018-09-16T02:35:59.386Z,11.40
2018-09-16T02:38:26.830Z,11.40
2018-09-16T02:40:54.288Z,11.40
2018-09-16T02:43:21.760Z,11.40
2018-09-16T02:45:49.222Z,11.40
2018-09-16T02:48:16.687Z,11.40
2018-09-16T02:50:44.155Z,11.40
2018-09-16T02:53:11.620Z,11.40
2018-09-16T02:55:39.100Z,11.40
2018-09-16T02:58:06.591Z,11.30
2018-09-16T03:00:34.027Z,11.40
2018-09-16T03:03:01.482Z,11.30
2018-09-16T03:05:34.638Z,11.40
2018-09-16T03:08:02.104Z,11.40
2018-09-16T03:10:29.552Z,11.40
2018-09-16T03:12:57.077Z,11.40
2018-09-16T03:15:24.516Z,11.40
2018-09-16T03:17:52.016Z,11.40
2018-09-16T03:20:19.511Z,11.30
2018-09-16T03:22:47.602Z,11.30
2018-09-16T03:25:15.061Z,11.30
2018-09-16T03:27:42.559Z,11.50
2018-09-16T03:30:10.019Z,11.30
2018-09-16T03:32:37.487Z,11.30
2018-09-16T03:35:04.981Z,11.20
2018-09-16T03:37:32.414Z,11.20
2018-09-16T03:39:59.939Z,11.30
2018-09-16T03:42:27.671Z,11.20
2018-09-16T03:44:55.107Z,11.20
2018-09-16T03:47:22.572Z,11.20
2018-09-16T03:49:49.999Z,11.20
2018-09-16T03:52:17.451Z,11.20
2018-09-16T03:54:44.939Z,11.20
2018-09-16T03:57:12.379Z,11.20
2018-09-16T03:59:39.831Z,11.20
2018-09-16T04:02:07.340Z,11.10
2018-09-16T04:04:34.803Z,11.10
2018-09-16T04:07:06.779Z,11.20
2018-09-16T04:09:34.232Z,11.10
2018-09-16T04:12:01.716Z,11.00
2018-09-16T04:14:29.127Z,11.00
2018-09-16T04:16:56.615Z,11.00
2018-09-16T04:19:24.067Z,11.10
2018-09-16T04:21:51.484Z,11.10
2018-09-16T04:24:18.943Z,11.10
2018-09-16T04:26:47.366Z,11.20
2018-09-16T04:29:14.793Z,11.10
2018-09-16T04:31:42.282Z,11.10
2018-09-16T04:34:09.773Z,11.10
2018-09-16T04:36:37.252Z,11.20
2018-09-16T04:39:07.705Z,11.10
2018-09-16T04:41:35.120Z,11.00
2018-09-16T04:44:02.579Z,11.00
2018-09-16T04:46:30.080Z,11.00
2018-09-16T04:48:57.600Z,11.00
2018-09-16T04:51:25.035Z,11.00
2018-09-16T04:53:52.459Z,11.00
2018-09-16T04:56:19.914Z,11.10
2018-09-16T04:58:48.367Z,11.00
2018-09-16T05:01:15.892Z,11.10
2018-09-16T05:03:43.281Z,11.10
2018-09-16T05:06:10.747Z,11.10
2018-09-16T05:08:38.265Z,11.10
2018-09-16T05:11:05.753Z,11.10
2018-09-16T05:13:33.563Z,11.20
2018-09-16T05:16:01.097Z,11.20
2018-09-16T05:18:28.679Z,11.30
2018-09-16T05:20:56.684Z,11.20
2018-09-16T05:23:24.141Z,11.20
2018-09-16T05:25:51.581Z,11.30
2018-09-16T05:28:19.551Z,11.30
2018-09-16T05:30:48.433Z,11.30
2018-09-16T05:33:21.512Z,11.30
2018-09-16T05:35:49.070Z,11.40
2018-09-16T05:38:16.514Z,11.40
2018-09-16T05:40:44.387Z,11.40
2018-09-16T05:43:11.910Z,11.40
2018-09-16T05:45:39.412Z,11.50
2018-09-16T05:48:06.988Z,11.50
2018-09-16T05:50:34.398Z,11.50
2018-09-16T05:53:02.190Z,11.60
2018-09-16T05:55:29.773Z,11.60
2018-09-16T05:57:57.320Z,11.60
2018-09-16T06:00:27.618Z,11.70
2018-09-16T06:02:55.697Z,11.70
2018-09-16T06:05:24.441Z,11.70
2018-09-16T06:07:52.341Z,11.70
2018-09-16T06:10:20.191Z,11.70
2018-09-16T06:12:48.452Z,11.80
2018-09-16T06:15:16.940Z,11.80
2018-09-16T06:17:44.518Z,11.90
2018-09-16T06:20:12.005Z,11.90
2018-09-16T06:22:39.457Z,11.90
2018-09-16T06:25:07.621Z,12.00
2018-09-16T06:27:35.060Z,12.00
2018-09-16T06:30:02.600Z,12.00
2018-09-16T06:32:30.076Z,12.00
2018-09-16T06:34:57.561Z,12.10
2018-09-16T06:37:25.033Z,12.00
2018-09-16T06:39:52.479Z,12.10
2018-09-16T06:42:20.201Z,12.10
2018-09-16T06:44:48.194Z,12.20
2018-09-16T06:47:15.980Z,12.20
2018-09-16T06:49:43.510Z,12.20
2018-09-16T06:52:11.080Z,12.30
2018-09-16T06:54:38.620Z,12.30
2018-09-16T06:57:06.230Z,12.30
2018-09-16T06:59:33.689Z,12.40
2018-09-16T07:02:01.561Z,12.40
2018-09-16T07:04:29.079Z,12.40
2018-09-16T07:06:58.948Z,12.40
2018-09-16T07:09:26.482Z,12.50
2018-09-16T07:11:53.929Z,12.50
2018-09-16T07:14:21.430Z,12.60
2018-09-16T07:16:49.370Z,12.60
2018-09-16T07:19:16.873Z,12.60
2018-09-16T07:21:44.421Z,12.70
2018-09-16T07:24:11.879Z,12.70
2018-09-16T07:26:39.426Z,12.80
2018-09-16T07:29:06.871Z,12.80
2018-09-16T07:31:34.316Z,12.90
2018-09-16T07:34:01.990Z,12.90
2018-09-16T07:36:29.575Z,12.90
2018-09-16T07:38:57.117Z,13.00
2018-09-16T07:41:24.573Z,12.90
2018-09-16T07:43:52.125Z,13.00
2018-09-16T07:46:19.666Z,13.00
2018-09-16T07:48:47.515Z,13.00
2018-09-16T07:51:15.697Z,13.10
2018-09-16T07:53:43.363Z,13.20
2018-09-16T07:56:10.803Z,13.20
2018-09-16T07:58:38.347Z,13.20
2018-09-16T08:01:05.896Z,13.20
2018-09-16T08:03:33.336Z,13.30
2018-09-16T08:06:00.861Z,13.40
2018-09-16T08:08:28.282Z,13.40
2018-09-16T08:10:55.743Z,13.40
2018-09-16T08:13:23.268Z,13.50
2018-09-16T08:15:50.765Z,13.60
2018-09-16T08:18:18.213Z,13.70
2018-09-16T08:20:45.742Z,13.80
2018-09-16T08:23:13.245Z,13.90
2018-09-16T08:25:40.788Z,14.00
2018-09-16T08:28:08.288Z,14.10
2018-09-16T08:30:35.751Z,14.10
2018-09-16T08:33:03.279Z,14.20
2018-09-16T08:35:31.007Z,14.30
2018-09-16T08:37:58.625Z,14.30
2018-09-16T08:40:26.094Z,14.40
2018-09-16T08:42:53.596Z,14.50
2018-09-16T08:45:21.139Z,14.60
2018-09-16T08:47:48.600Z,14.70
2018-09-16T08:50:16.159Z,14.70
2018-09-16T08:52:43.600Z,14.80
2018-09-16T08:55:11.188Z,14.90
2018-09-16T08:57:38.647Z,15.00
2018-09-16T09:00:07.316Z,15.00
2018-09-16T09:02:35.323Z,15.10
2018-09-16T09:05:03.120Z,15.30
2018-09-16T09:07:31.570Z,15.40
2018-09-16T09:09:59.660Z,15.40
2018-09-16T09:12:27.416Z,15.50
2018-09-16T09:14:54.900Z,15.60
2018-09-16T09:17:22.342Z,15.70
2018-09-16T09:19:49.847Z,15.80
2018-09-16T09:22:17.284Z,15.90
2018-09-16T09:24:44.764Z,16.00
2018-09-16T09:27:12.222Z,16.10
2018-09-16T09:29:39.732Z,16.10
2018-09-16T09:32:07.341Z,16.20
2018-09-16T09:34:34.820Z,16.30
2018-09-16T09:37:02.276Z,16.30
2018-09-16T09:39:30.025Z,16.40
2018-09-16T09:41:57.787Z,16.50
2018-09-16T09:44:25.234Z,16.80
2018-09-16T09:46:52.773Z,16.90
2018-09-16T09:49:20.262Z,16.90
2018-09-16T09:51:47.759Z,17.00
2018-09-16T09:54:15.288Z,17.10
2018-09-16T09:56:42.914Z,17.20
2018-09-16T09:59:10.650Z,17.20
2018-09-16T10:01:38.122Z,17.30
2018-09-16T10:04:05.721Z,17.40
2018-09-16T10:06:33.204Z,17.40
2018-09-16T10:09:00.721Z,17.50
2018-09-16T10:11:28.168Z,17.50
2018-09-16T10:13:56.040Z,17.60
2018-09-16T10:16:23.535Z,17.70
2018-09-16T10:18:51.294Z,17.80
2018-09-16T10:21:18.792Z,17.90
2018-09-16T10:23:46.198Z,18.00
2018-09-16T10:26:14.055Z,18.00
2018-09-16T10:28:41.611Z,18.10
2018-09-16T10:31:09.146Z,18.20
2018-09-16T10:33:36.704Z,18.20
2018-09-16T10:36:04.551Z,18.20
2018-09-16T10:38:32.087Z,18.30
2018-09-16T10:40:59.626Z,18.30
2018-09-16T10:43:27.159Z,18.30
2018-09-16T10:45:54.982Z,18.30
2018-09-16T10:48:22.896Z,18.40
2018-09-16T10:50:52.673Z,18.50
2018-09-16T10:53:21.122Z,18.60
2018-09-16T10:55:49.827Z,18.70
2018-09-16T10:58:17.392Z,18.80
2018-09-16T11:00:44.974Z,18.80
2018-09-16T11:03:12.448Z,18.90
2018-09-16T11:05:40.051Z,18.90
2018-09-16T11:08:07.591Z,18.90
2018-09-16T11:10:35.020Z,18.90
2018-09-16T11:13:02.547Z,18.90
2018-09-16T11:15:30.413Z,18.90
2018-09-16T11:17:57.993Z,19.00
2018-09-16T11:20:26.631Z,19.00
2018-09-16T11:22:54.291Z,19.10
2018-09-16T11:25:22.282Z,19.20
2018-09-16T11:27:49.944Z,19.30
2018-09-16T11:30:17.522Z,19.40
2018-09-16T11:32:45.196Z,19.50
2018-09-16T11:35:12.705Z,19.40
2018-09-16T11:37:41.187Z,19.50
2018-09-16T11:40:08.715Z,19.50
2018-09-16T11:42:36.144Z,19.70
2018-09-16T11:45:03.734Z,19.70
2018-09-16T11:47:31.155Z,19.70
2018-09-16T11:49:58.612Z,19.70
2018-09-16T11:52:26.120Z,19.80
2018-09-16T11:54:53.620Z,19.80
2018-09-16T11:57:21.079Z,19.80
2018-09-16T11:59:48.810Z,19.80
2018-09-16T12:02:16.276Z,19.90
2018-09-16T12:04:43.787Z,20.00
2018-09-16T12:07:11.435Z,20.00
2018-09-16T12:09:38.902Z,20.10
2018-09-16T12:12:06.615Z,20.10
2018-09-16T12:14:34.110Z,20.10
2018-09-16T12:17:01.649Z,20.10
2018-09-16T12:19:29.163Z,20.00
2018-09-16T12:21:56.610Z,19.90
2018-09-16T12:24:24.127Z,19.90
2018-09-16T12:26:51.763Z,19.90
2018-09-16T12:29:19.267Z,20.00
2018-09-16T12:31:46.724Z,20.10
2018-09-16T12:34:14.213Z,20.20
2018-09-16T12:36:41.775Z,20.20
2018-09-16T12:39:11.647Z,20.20
2018-09-16T12:41:39.205Z,20.30
2018-09-16T12:44:06.956Z,20.40
2018-09-16T12:46:34.501Z,20.50
2018-09-16T12:49:02.515Z,20.60
2018-09-16T12:51:30.008Z,20.60
2018-09-16T12:53:57.589Z,20.70
2018-09-16T12:56:25.099Z,20.70
2018-09-16T12:58:52.537Z,20.80
2018-09-16T13:01:19.967Z,20.90
2018-09-16T13:03:47.674Z,21.00
2018-09-16T13:06:15.131Z,21.00
2018-09-16T13:08:42.656Z,21.00
2018-09-16T13:11:10.253Z,20.90
2018-09-16T13:13:37.805Z,20.80
2018-09-16T13:16:05.755Z,20.80
2018-09-16T13:18:33.624Z,20.70
2018-09-16T13:21:01.286Z,20.70
2018-09-16T13:23:28.812Z,20.70
2018-09-16T13:25:56.270Z,20.60
2018-09-16T13:28:24.025Z,20.70
2018-09-16T13:30:51.870Z,20.70
2018-09-16T13:33:19.443Z,20.70
2018-09-16T13:35:46.935Z,20.70
2018-09-16T13:38:14.577Z,20.80
2018-09-16T13:40:42.118Z,20.70
2018-09-16T13:43:09.715Z,20.70
2018-09-16T13:45:37.225Z,20.80
2018-09-16T13:48:04.866Z,20.90
2018-09-16T13:50:32.604Z,20.90
2018-09-16T13:53:00.135Z,21.00
2018-09-16T13:55:27.676Z,21.00
2018-09-16T13:57:55.124Z,21.00
2018-09-16T14:00:22.889Z,21.00
2018-09-16T14:02:51.004Z,21.00
2018-09-16T14:05:18.598Z,21.00
2018-09-16T14:07:46.389Z,21.00
2018-09-16T14:10:14.381Z,21.00
2018-09-16T14:12:42.099Z,21.00
2018-09-16T14:15:09.763Z,21.00
2018-09-16T14:17:37.425Z,21.00
2018-09-16T14:20:04.951Z,21.00
2018-09-16T14:22:32.580Z,21.10
2018-09-16T14:25:00.040Z,21.10
2018-09-16T14:27:27.616Z,21.20
2018-09-16T14:29:55.113Z,21.10
2018-09-16T14:32:22.618Z,21.10
2018-09-16T14:34:51.178Z,21.00
2018-09-16T14:37:18.777Z,21.00
2018-09-16T14:39:46.235Z,21.10
2018-09-16T14:42:13.794Z,21.10
2018-09-16T14:44:41.345Z,21.10
2018-09-16T14:47:09.513Z,21.10
2018-09-16T14:49:37.059Z,21.10
2018-09-16T14:52:04.529Z,21.10
2018-09-16T14:54:32.091Z,21.10
2018-09-16T14:56:59.624Z,21.20
2018-09-16T14:59:27.168Z,21.30
2018-09-16T15:01:54.698Z,21.30
2018-09-16T15:04:22.282Z,21.20
2018-09-16T15:06:51.007Z,21.20
2018-09-16T15:09:18.452Z,21.20
2018-09-16T15:11:46.148Z,21.20
2018-09-16T15:14:13.720Z,21.20
2018-09-16T15:16:44.160Z,21.20
2018-09-16T15:19:13.374Z,21.20
2018-09-16T15:21:40.929Z,21.20
2018-09-16T15:24:09.758Z,21.20
2018-09-16T15:26:37.344Z,21.20
2018-09-16T15:29:04.862Z,21.30
2018-09-16T15:31:32.437Z,21.20
2018-09-16T15:33:59.983Z,21.20
2018-09-16T15:36:27.439Z,21.20
2018-09-16T15:38:54.980Z,21.20
2018-09-16T15:41:22.451Z,21.20
2018-09-16T15:43:50.004Z,21.10
2018-09-16T15:46:17.652Z,21.10
2018-09-16T15:48:45.117Z,21.10
2018-09-16T15:51:12.836Z,21.00
2018-09-16T15:53:40.304Z,21.00
2018-09-16T15:56:07.775Z,21.10
2018-09-16T15:58:35.551Z,21.10
2018-09-16T16:01:03.157Z,21.10
2018-09-16T16:03:30.636Z,21.10
2018-09-16T16:05:58.111Z,21.10
2018-09-16T16:08:25.567Z,21.20
2018-09-16T16:10:53.328Z,21.20
2018-09-16T16:13:21.056Z,21.20
2018-09-16T16:15:48.610Z,21.20
2018-09-16T16:18:16.155Z,21.10
2018-09-16T16:20:43.763Z,21.10
2018-09-16T16:23:11.414Z,21.10
2018-09-16T16:25:38.944Z,21.10
2018-09-16T16:28:07.646Z,21.10
2018-09-16T16:30:35.362Z,21.10
2018-09-16T16:33:02.905Z,21.10
2018-09-16T16:35:30.664Z,21.10
2018-09-16T16:37:58.603Z,21.10
2018-09-16T16:40:26.280Z,21.10
2018-09-16T16:42:54.922Z,21.10
2018-09-16T16:45:22.589Z,21.00
2018-09-16T16:47:50.435Z,21.00
2018-09-16T16:50:18.477Z,20.90
2018-09-16T16:52:46.248Z,20.90
2018-09-16T16:55:15.176Z,20.90
2018-09-16T16:57:42.823Z,20.80
2018-09-16T17:00:10.663Z,20.80
2018-09-16T17:02:38.475Z,20.70
2018-09-16T17:05:06.471Z,20.70
2018-09-16T17:07:34.032Z,20.70
2018-09-16T17:10:01.716Z,20.60
2018-09-16T17:12:58.524Z,20.40
2018-09-16T17:15:35.663Z,20.30
2018-09-16T17:18:12.889Z,20.20
2018-09-16T17:20:53.980Z,20.10
2018-09-16T17:23:34.439Z,20.00
2018-09-16T17:26:17.948Z,19.80
2018-09-16T17:28:46.249Z,19.70
2018-09-16T17:31:13.867Z,19.60
2018-09-16T17:33:45.821Z,19.50
2018-09-16T17:36:18.520Z,19.50
2018-09-16T17:38:46.121Z,19.50
2018-09-16T17:41:14.004Z,19.40
2018-09-16T17:43:43.282Z,19.20
2018-09-16T17:46:11.205Z,19.10
2018-09-16T17:48:40.193Z,19.20
2018-09-16T17:51:08.031Z,19.10
2018-09-16T17:53:35.718Z,19.10
2018-09-16T17:56:03.550Z,18.90
2018-09-16T17:58:31.344Z,18.70
2018-09-16T18:00:59.011Z,18.60
2018-09-16T18:03:27.585Z,18.50
2018-09-16T18:05:55.099Z,18.50
2018-09-16T18:08:29.684Z,18.60
2018-09-16T18:10:57.184Z,18.50
2018-09-16T18:13:24.623Z,18.30
2018-09-16T18:15:52.211Z,18.30
2018-09-16T18:18:19.703Z,18.30
2018-09-16T18:20:47.369Z,18.20
2018-09-16T18:23:14.952Z,18.20
2018-09-16T18:25:42.831Z,18.30
2018-09-16T18:28:10.280Z,18.20
2018-09-16T18:30:38.047Z,18.10
2018-09-16T18:33:05.917Z,18.00
2018-09-16T18:35:33.444Z,18.10
2018-09-16T18:38:01.248Z,18.10
2018-09-16T18:40:28.931Z,18.00
2018-09-16T18:42:56.432Z,18.10
2018-09-16T18:45:24.220Z,18.00
2018-09-16T18:47:51.681Z,18.00
2018-09-16T18:50:19.127Z,17.90
2018-09-16T18:52:47.360Z,18.00
2018-09-16T18:55:14.800Z,18.00
2018-09-16T18:57:42.561Z,17.90
2018-09-16T19:00:10.093Z,17.90
2018-09-16T19:02:37.596Z,17.80
2018-09-16T19:05:05.293Z,17.80
2018-09-16T19:07:32.755Z,17.90
2018-09-16T19:10:00.313Z,17.80
2018-09-16T19:12:27.832Z,17.70
2018-09-16T19:14:55.307Z,17.50
2018-09-16T19:17:22.783Z,17.40
2018-09-16T19:19:50.424Z,17.40
2018-09-16T19:22:17.896Z,17.40
2018-09-16T19:24:45.352Z,17.50
2018-09-16T19:27:13.205Z,17.40
2018-09-16T19:29:40.875Z,17.20
2018-09-16T19:32:08.285Z,17.20
2018-09-16T19:34:35.931Z,17.30
2018-09-16T19:37:03.436Z,17.40
2018-09-16T19:39:31.037Z,17.20
2018-09-16T19:41:58.488Z,17.20
2018-09-16T19:44:25.975Z,17.10
2018-09-16T19:46:54.151Z,17.10
2018-09-16T19:49:21.645Z,17.00
2018-09-16T19:51:49.371Z,16.90
2018-09-16T19:54:16.981Z,16.80
2018-09-16T19:56:44.463Z,16.90
2018-09-16T19:59:12.003Z,16.90
2018-09-16T20:01:39.499Z,16.90
2018-09-16T20:04:07.115Z,16.90
2018-09-16T20:06:34.612Z,16.90
2018-09-16T20:09:02.128Z,16.90
2018-09-16T20:11:29.779Z,17.00
2018-09-16T20:13:57.345Z,16.80
2018-09-16T20:16:24.824Z,16.80
2018-09-16T20:18:52.816Z,16.90
2018-09-16T20:21:20.269Z,16.90
2018-09-16T20:23:47.702Z,16.60
2018-09-16T20:26:15.303Z,16.60
2018-09-16T20:28:42.849Z,16.50
2018-09-16T20:31:10.255Z,16.40
2018-09-16T20:33:37.811Z,16.40
2018-09-16T20:36:05.283Z,16.40
2018-09-16T20:38:32.895Z,16.50
2018-09-16T20:41:00.482Z,16.50
2018-09-16T20:43:28.052Z,16.50
2018-09-16T20:45:55.495Z,16.40
2018-09-16T20:48:22.948Z,16.40
2018-09-16T20:50:50.635Z,16.30
2018-09-16T20:53:18.099Z,16.30
2018-09-16T20:55:45.627Z,16.30
2018-09-16T20:58:13.139Z,16.20
2018-09-16T21:00:40.687Z,16.20
2018-09-16T21:03:08.112Z,16.10
2018-09-16T21:05:35.598Z,16.10
2018-09-16T21:08:03.104Z,16.00
2018-09-16T21:10:30.611Z,16.00
2018-09-16T21:12:58.732Z,15.90
2018-09-16T21:15:26.203Z,15.80
2018-09-16T21:17:53.676Z,15.70
2018-09-16T21:20:21.106Z,15.50
2018-09-16T21:22:48.569Z,15.30
2018-09-16T21:25:16.006Z,15.20
2018-09-16T21:27:43.808Z,15.10
2018-09-16T21:30:11.488Z,15.00
2018-09-16T21:32:38.957Z,15.00
2018-09-16T21:35:06.451Z,14.90
2018-09-16T21:37:34.125Z,14.90
2018-09-16T21:40:01.667Z,14.90
2018-09-16T21:42:29.096Z,14.70
2018-09-16T21:44:56.616Z,14.70
2018-09-16T21:47:24.512Z,14.80
2018-09-16T21:49:52.003Z,14.90
2018-09-16T21:52:19.491Z,14.90
2018-09-16T21:54:47.004Z,14.80
2018-09-16T21:57:14.488Z,14.90
2018-09-16T21:59:41.949Z,14.90
2018-09-16T22:02:09.376Z,14.90
2018-09-16T22:04:36.787Z,14.80
2018-09-16T22:07:04.363Z,14.90
2018-09-16T22:09:31.981Z,14.80
2018-09-16T22:11:59.478Z,14.70
2018-09-16T22:14:26.916Z,14.70
2018-09-16T22:16:55.091Z,14.70
2018-09-16T22:19:22.600Z,14.60
2018-09-16T22:21:50.065Z,14.70
2018-09-16T22:24:17.507Z,14.60
2018-09-16T22:26:44.978Z,14.50
2018-09-16T22:29:12.425Z,14.40
2018-09-16T22:31:40.032Z,14.50
2018-09-16T22:34:07.695Z,14.40
2018-09-16T22:36:35.149Z,14.50
2018-09-16T22:39:03.827Z,14.50
2018-09-16T22:41:31.259Z,14.50
2018-09-16T22:43:58.730Z,14.50
2018-09-16T22:46:26.262Z,14.30
2018-09-16T22:48:54.629Z,14.20
2018-09-16T22:51:22.219Z,14.10
2018-09-16T22:53:49.677Z,14.20
2018-09-16T22:56:17.159Z,14.20
2018-09-16T22:58:44.612Z,14.00
2018-09-16T23:01:12.084Z,13.90
2018-09-16T23:03:39.676Z,13.70
2018-09-16T23:06:07.143Z,13.80
2018-09-16T23:08:34.575Z,13.80
2018-09-16T23:11:02.234Z,13.80
2018-09-16T23:13:29.711Z,13.80
2018-09-16T23:15:57.200Z,13.80
2018-09-16T23:18:24.687Z,13.80
2018-09-16T23:20:52.202Z,13.70
2018-09-16T23:23:19.615Z,13.80
2018-09-16T23:25:47.123Z,13.60
2018-09-16T23:28:14.588Z,13.60
2018-09-16T23:30:42.056Z,13.50
2018-09-16T23:33:09.499Z,13.30
2018-09-16T23:35:36.933Z,13.30
2018-09-16T23:38:04.362Z,13.30
2018-09-16T23:40:31.867Z,13.40
2018-09-16T23:42:59.464Z,13.40
2018-09-16T23:45:27.004Z,13.40
2018-09-16T23:47:54.448Z,13.20
2018-09-16T23:50:21.889Z,13.30
2018-09-16T23:52:49.546Z,13.30
2018-09-16T23:55:17.002Z,13.30
2018-09-16T23:57:44.459Z,13.30
